LiveATC.Net - Listen to live air traffic control over the Internet!


ICAO: KDEC  IATA: DEC   Airport: Decatur Airport
City: Decatur   State/Province: Illinois
Country: United States   Continent: North America
KDEC METAR Weather: KDEC 281954Z 21009KT 10SM TS FEW025 SCT032 SCT060 29/23 A2986 RMK AO2 LTG DSNT SW-N TSB44 SLP105 T02940233
KDEC Flight Activity (FlightAware)
KDEC Airport Info   (AirNav) (iFlightPlanner)
KDEC VFR Sectional Chart   (iFlightPlanner) 
KDEC IFR Low Chart   (iFlightPlanner) 
KDEC Tower/Ground
Feed Status: DOWN
Last heard on: 2016-07-28 17:36:03 (0 days 2 hours 38 minutes ago)
KDEC Tower/Ground Audio Archives
FacilityFrequency
Decatur Ground121.750
Decatur Tower118.900


NOTICE

Unauthorized use prohibited. See LiveATC.net Terms of Service


Find LiveATC Audio Streams


Airport/ARTCC Code

Frequency
(e.g., 124.400, 128.75)
Site-wide search

Browse LiveATC Feeds
LiveATC Coverage Map
Top 50 LiveATC Feeds
Bad Weather Areas

LiveATC FAQ
Offer a LiveATC Feed
Contact LiveATC.net
Press Inquiries

LiveATC on iPhone
LiveATC on Android

Windows Phone
Windows 8/10

LiveATC Mobile
(Mobile browser)

ATC Audio Archives
Interesting Recordings

LiveATC Forums


Home Page
About LiveATC.net
Make a Donation
LiveATC Store

Terms of Use
Privacy Policy

Canadian Air Freqs

AIRMETs/SIGMETs

FAA Airport Status
Nat'l Airspace Status
Arrival Demand Charts


Server Software By:
Icecast.org
Liquidsoap